Time;durP1;ratioP1;P1;durP2;ratioP2;P2;SDS_P1;SDS_P2;PMS_P1;PMS_P2;Temp;Humidity;BMP_temperature;BMP_pressure;BME280_temperature;BME280_humidity;BME280_pressure;Samples;Min_cycle;Max_cycle;Signal;HPM_P1;HPM_P2
2021/01/09 00:01:26;;;;;;;38.58;21.17;;;0.90;99.90;;;-0.19;91.23;101572.69;4119084;28;20030;-70
2021/01/09 00:03:26;;;;;;;37.15;19.70;;;0.90;99.90;;;-0.19;91.47;101581.31;4120530;28;20038;-70
2021/01/09 00:05:27;;;;;;;35.90;20.08;;;0.90;99.90;;;-0.23;91.45;101576.31;4121607;28;20029;-70
2021/01/09 00:07:31;;;;;;;36.70;20.08;;;0.80;99.90;;;-0.25;91.33;101579.00;4115110;28;20033;-70
2021/01/09 00:09:32;;;;;;;38.30;19.55;;;1.00;99.90;;;-0.40;91.66;101584.84;4114167;28;20034;-70
2021/01/09 00:11:34;;;;;;;33.63;18.42;;;0.70;99.90;;;-0.32;91.52;101568.94;4120820;28;20471;-70
2021/01/09 00:13:34;;;;;;;37.40;18.67;;;0.80;99.90;;;-0.35;91.42;101574.25;4121707;28;20542;-70
2021/01/09 00:15:35;;;;;;;29.77;16.35;;;0.70;99.90;;;-0.50;91.43;101570.59;4130662;28;20103;-70
2021/01/09 00:17:37;;;;;;;32.58;18.92;;;0.60;99.90;;;-0.47;91.70;101569.59;4121399;28;20102;-70
2021/01/09 00:19:39;;;;;;;33.35;18.88;;;0.60;99.90;;;-0.42;91.59;101581.50;4133075;28;20050;-70
2021/01/09 00:21:41;;;;;;;31.58;19.17;;;0.60;99.90;;;-0.42;91.50;101578.06;4121454;28;20031;-70
2021/01/09 00:23:41;;;;;;;35.10;20.02;;;0.70;99.90;;;-0.41;91.63;101575.38;4119885;28;20533;-70
2021/01/09 00:25:42;;;;;;;32.17;19.02;;;0.50;99.90;;;-0.25;91.35;101571.22;4121254;28;20027;-70
2021/01/09 00:27:45;;;;;;;31.92;19.40;;;0.70;99.90;;;-0.34;91.55;101579.41;4119473;28;20050;-70
2021/01/09 00:29:46;;;;;;;41.28;19.67;;;0.70;99.90;;;-0.23;91.32;101586.69;4116520;28;20022;-70
2021/01/09 00:31:46;;;;;;;38.00;19.83;;;0.70;99.90;;;-0.36;91.38;101577.78;4103886;29;20438;-70
2021/01/09 00:33:48;;;;;;;35.90;19.10;;;0.70;99.90;;;-0.24;91.11;101583.25;4121087;28;20132;-70
2021/01/09 00:35:49;;;;;;;35.15;18.58;;;0.70;99.90;;;-0.45;90.64;101578.19;4119731;28;20101;-70
2021/01/09 00:37:50;;;;;;;32.90;17.58;;;1.60;99.90;;;-0.78;90.60;101591.66;4103800;29;20487;-70
2021/01/09 00:39:51;;;;;;;37.28;17.45;;;0.50;99.90;;;-0.76;91.04;101594.16;4123353;28;20086;-70
2021/01/09 00:41:51;;;;;;;32.90;18.33;;;0.30;99.90;;;-0.85;91.62;101590.22;4120530;28;20027;-70
2021/01/09 00:43:53;;;;;;;30.92;18.45;;;0.30;99.90;;;-1.12;91.84;101593.91;4119427;28;20066;-70
2021/01/09 00:45:53;;;;;;;37.45;19.23;;;0.10;99.90;;;-1.02;92.09;101595.25;4103819;29;20042;-70
2021/01/09 00:47:54;;;;;;;32.90;18.23;;;0.10;99.90;;;-1.18;92.60;101592.41;4103980;29;20455;-70
2021/01/09 00:49:55;;;;;;;36.83;18.42;;;0.00;99.90;;;-1.04;92.64;101596.19;4103688;29;20039;-70
2021/01/09 00:51:56;;;;;;;39.13;19.88;;;0.00;99.90;;;-1.07;92.96;101596.31;4135533;28;20042;-70
2021/01/09 00:53:57;;;;;;;35.90;19.30;;;0.00;99.90;;;-0.96;93.26;101607.94;4120890;28;20027;-70
2021/01/09 00:55:58;;;;;;;37.03;19.33;;;0.00;99.90;;;-0.77;93.18;101608.00;4120830;28;20035;-70
2021/01/09 00:57:59;;;;;;;40.17;21.33;;;0.10;99.90;;;-0.91;92.49;101599.97;4135486;28;20022;-70
2021/01/09 01:00:00;;;;;;;38.78;20.30;;;0.10;99.90;;;-0.95;92.61;101588.03;4135450;28;20465;-70
2021/01/09 01:02:01;;;;;;;37.58;19.75;;;0.10;99.90;;;-0.85;92.84;101594.53;4103473;29;20027;-70
2021/01/09 01:04:02;;;;;;;34.28;18.92;;;0.10;99.90;;;-0.82;92.84;101574.53;4120427;28;20058;-70
2021/01/09 01:06:04;;;;;;;35.53;19.35;;;0.20;99.90;;;-0.66;92.38;101587.72;4103269;29;20078;-70
2021/01/09 01:08:05;;;;;;;37.90;18.52;;;0.20;99.90;;;-0.61;92.43;101594.38;4117994;28;20031;-70
2021/01/09 01:10:07;;;;;;;39.33;19.55;;;0.30;99.90;;;-0.53;91.91;101599.22;4119585;28;20446;-70
2021/01/09 01:12:08;;;;;;;36.28;18.38;;;0.40;99.90;;;-0.46;91.97;101592.03;4120197;28;20109;-70
2021/01/09 01:14:09;;;;;;;33.95;18.13;;;0.50;99.90;;;-0.40;91.53;101591.78;4126465;28;20480;-70
2021/01/09 01:16:14;;;;;;;34.53;18.08;;;0.50;99.90;;;-0.33;91.42;101588.84;4123916;28;20019;-70
2021/01/09 01:18:15;;;;;;;30.48;17.65;;;0.50;99.90;;;-0.24;90.73;101598.00;4120160;28;20034;-71
2021/01/09 01:20:16;;;;;;;40.13;19.08;;;0.60;99.90;;;-0.58;89.30;101578.69;4124624;28;20026;-70
2021/01/09 01:22:16;;;;;;;33.47;17.58;;;0.60;99.90;;;-0.47;89.31;101601.56;4120293;28;20495;-71
2021/01/09 01:24:17;;;;;;;31.00;17.63;;;0.60;99.90;;;-0.54;90.04;101599.31;4102890;29;20034;-70
2021/01/09 01:26:19;;;;;;;36.38;19.17;;;0.50;99.90;;;-0.65;90.19;101592.81;4102643;29;20088;-70
2021/01/09 01:28:19;;;;;;;37.03;17.13;;;0.50;99.90;;;-0.61;90.42;101601.31;4102722;29;20019;-70
2021/01/09 01:30:20;;;;;;;33.30;19.30;;;0.50;99.90;;;-0.62;90.88;101604.78;4138566;28;20037;-70
2021/01/09 01:32:21;;;;;;;32.70;17.80;;;0.50;99.90;;;-0.60;91.43;101600.41;4102762;29;20039;-70
2021/01/09 01:34:22;;;;;;;30.55;18.65;;;0.50;99.90;;;-0.59;90.31;101602.91;4119985;28;20030;-70
2021/01/09 01:36:23;;;;;;;31.70;17.05;;;0.40;99.90;;;-0.69;90.96;101608.56;4102803;29;20022;-70
2021/01/09 01:38:25;;;;;;;35.10;18.35;;;0.40;99.90;;;-0.46;90.31;101595.47;4120091;28;20023;-70
2021/01/09 01:40:26;;;;;;;31.25;17.48;;;0.40;99.90;;;-0.40;91.69;101613.34;4120141;28;20026;-70
2021/01/09 01:42:29;;;;;;;32.03;18.02;;;0.50;99.90;;;-0.42;89.92;101615.19;4118432;28;20027;-70
2021/01/09 01:44:31;;;;;;;26.45;15.55;;;0.60;99.90;;;-0.48;89.54;101612.00;4119946;28;20093;-70
2021/01/09 01:46:32;;;;;;;28.15;16.60;;;0.50;99.90;;;-0.46;89.70;101615.34;4118804;28;20031;-70
2021/01/09 01:48:34;;;;;;;28.45;16.73;;;0.60;99.90;;;-0.66;88.99;101611.84;4118677;28;20077;-70
2021/01/09 01:50:39;;;;;;;27.05;16.75;;;0.50;99.90;;;-0.73;89.18;101610.44;4119601;28;20467;-70
2021/01/09 01:52:40;;;;;;;26.10;15.32;;;1.00;99.90;;;-0.69;88.58;101611.16;4118752;28;20042;-70
2021/01/09 01:54:45;;;;;;;28.70;15.77;;;0.40;99.90;;;-0.78;89.33;101621.88;4102755;29;20039;-70
2021/01/09 01:56:51;;;;;;;24.13;14.48;;;0.40;99.90;;;-0.95;90.05;101603.56;4118327;28;20033;-70
2021/01/09 01:58:52;;;;;;;29.77;17.23;;;0.40;99.90;;;-1.01;89.81;101614.19;4118852;28;20493;-70
2021/01/09 02:00:53;;;;;;;27.60;15.80;;;0.40;99.90;;;-1.35;91.08;101601.75;4134815;28;20054;-70
2021/01/09 02:03:03;;;;;;;28.65;16.88;;;0.00;99.90;;;-1.13;91.42;101600.81;4134695;28;20034;-70
2021/01/09 02:05:06;;;;;;;28.63;16.48;;;0.00;99.90;;;-1.03;91.24;101606.50;4102452;29;20034;-70
2021/01/09 02:07:16;;;;;;;27.20;16.75;;;0.00;99.90;;;-1.34;91.61;101612.03;4098976;28;20082;-70
2021/01/09 02:09:27;;;;;;;24.02;15.27;;;0.00;99.90;;;-1.13;91.16;101611.19;4110501;28;20086;-70
2021/01/09 02:11:56;;;;;;;27.38;15.70;;;-0.10;99.90;;;-1.20;90.92;101599.41;4118090;28;20085;-70
2021/01/09 02:14:01;;;;;;;33.47;16.88;;;-0.10;99.90;;;-1.26;91.67;101610.00;4128296;28;20022;-70
2021/01/09 02:16:04;;;;;;;33.67;17.25;;;-0.20;99.90;;;-1.50;92.17;101604.91;4134214;28;20072;-70
2021/01/09 02:18:06;;;;;;;31.15;16.65;;;-0.30;99.90;;;-1.47;92.17;101609.97;4134668;28;20514;-70
2021/01/09 02:20:08;;;;;;;29.67;16.27;;;-0.30;99.90;;;-1.56;92.67;101618.09;4134337;28;20027;-70
2021/01/09 02:22:15;;;;;;;32.10;18.10;;;-0.40;99.90;;;-1.37;93.02;101626.81;4119578;28;20073;-71
2021/01/09 02:24:18;;;;;;;29.52;16.63;;;-0.40;99.90;;;-1.24;93.39;101623.72;4118388;28;20030;-70
2021/01/09 02:26:19;;;;;;;31.58;17.75;;;-0.30;99.90;;;-1.07;92.93;101619.59;4119137;28;20042;-70
2021/01/09 02:28:20;;;;;;;33.38;17.27;;;-0.20;99.90;;;-0.97;92.96;101632.13;4119546;28;20045;-70
2021/01/09 02:30:29;;;;;;;34.88;17.98;;;-0.10;99.90;;;-0.95;91.99;101619.97;4121789;28;20026;-70
2021/01/09 02:32:45;;;;;;;30.58;16.60;;;-0.10;99.90;;;-0.89;91.15;101624.03;4102635;28;20110;-70
2021/01/09 02:34:57;;;;;;;34.35;18.40;;;0.00;99.90;;;-0.87;90.95;101619.66;4122629;28;20027;-70
2021/01/09 02:36:59;;;;;;;30.17;16.73;;;0.10;99.90;;;-0.78;91.79;101621.88;4134368;28;20030;-70
2021/01/09 02:39:00;;;;;;;32.33;16.88;;;0.10;99.90;;;-0.47;90.13;101617.09;4101921;29;20026;-70
2021/01/09 02:41:03;;;;;;;33.97;17.70;;;0.30;99.90;;;-0.38;88.92;101629.69;4101919;29;20062;-71
2021/01/09 02:43:04;;;;;;;37.58;18.52;;;0.40;99.90;;;-0.48;88.80;101625.81;4117799;28;20418;-71
2021/01/09 02:45:06;;;;;;;31.48;16.77;;;0.40;99.90;;;-0.39;90.75;101624.56;4134340;28;20031;-70
2021/01/09 02:47:07;;;;;;;30.77;18.20;;;0.40;99.90;;;-0.45;88.46;101615.31;4134238;28;20438;-70
2021/01/09 02:49:08;;;;;;;36.03;17.67;;;0.50;99.90;;;-0.51;88.91;101615.56;4134407;28;20041;-70
2021/01/09 02:51:09;;;;;;;32.70;18.35;;;0.60;99.90;;;-0.57;89.18;101621.00;4119291;28;20050;-70
2021/01/09 02:53:10;;;;;;;27.50;16.05;;;0.50;99.90;;;-0.56;88.45;101620.09;4118251;28;20027;-70
2021/01/09 02:55:11;;;;;;;28.90;17.33;;;0.40;99.90;;;-0.92;88.70;101604.31;4119274;28;20034;-70
2021/01/09 02:57:12;;;;;;;26.20;16.02;;;0.30;99.90;;;-0.90;90.04;101614.63;4119169;28;20089;-70
2021/01/09 02:59:13;;;;;;;28.75;15.90;;;0.30;99.90;;;-0.78;88.53;101614.97;4119353;28;20019;-70
2021/01/09 03:01:14;;;;;;;26.77;14.60;;;0.30;99.90;;;-1.04;88.43;101609.97;4118213;28;20066;-70
2021/01/09 03:03:14;;;;;;;30.23;15.63;;;1.60;99.90;;;-1.41;90.24;101620.94;4117955;28;20030;-70
2021/01/09 03:05:15;;;;;;;26.40;17.02;;;-0.10;99.90;;;-1.49;90.85;101604.84;4119393;28;20483;-70
2021/01/09 03:07:16;;;;;;;25.40;15.35;;;-1.30;99.90;;;-1.32;91.51;101617.16;4114532;28;20082;-71
2021/01/09 03:09:17;;;;;;;33.67;17.10;;;-0.20;99.90;;;-1.12;91.86;101610.28;4111270;28;20089;-70
2021/01/09 03:11:18;;;;;;;28.52;16.08;;;-0.20;99.90;;;-1.11;91.11;101609.38;4101523;28;20111;-70
2021/01/09 03:13:19;;;;;;;30.83;18.20;;;-0.20;99.90;;;-1.12;90.99;101607.69;4119300;28;20030;-70
2021/01/09 03:15:20;;;;;;;27.10;16.35;;;-0.20;99.90;;;-1.14;91.32;101614.69;4130083;28;20073;-70
2021/01/09 03:17:21;;;;;;;32.72;17.25;;;-0.10;99.90;;;-1.01;91.32;101606.41;4119253;28;20102;-70
2021/01/09 03:19:22;;;;;;;26.85;16.05;;;0.00;99.90;;;-1.02;90.85;101604.75;4119226;28;20015;-70
2021/01/09 03:21:23;;;;;;;28.85;17.17;;;0.00;99.90;;;-0.89;89.48;101613.69;4118978;28;20486;-70
2021/01/09 03:23:24;;;;;;;28.02;14.95;;;0.50;99.90;;;-1.01;90.29;101609.84;4119242;28;20035;-70
2021/01/09 03:25:24;;;;;;;30.52;17.35;;;0.10;99.90;;;-0.90;90.00;101619.78;4119254;28;20034;-70
2021/01/09 03:27:25;;;;;;;26.67;15.23;;;0.20;99.90;;;-0.91;89.75;101605.16;4118883;28;20034;-70
2021/01/09 03:29:26;;;;;;;28.88;15.82;;;0.20;99.90;;;-1.06;89.63;101611.78;4122182;28;20037;-70
2021/01/09 03:31:27;;;;;;;28.98;16.23;;;0.30;99.90;;;-0.90;89.35;101606.84;4119139;28;20490;-70
2021/01/09 03:33:29;;;;;;;27.00;15.52;;;0.30;99.90;;;-0.86;89.17;101604.06;4103479;28;20054;-70
2021/01/09 03:35:30;;;;;;;27.48;15.45;;;0.20;99.90;;;-1.10;90.01;101594.69;4132293;28;20025;-70
2021/01/09 03:37:31;;;;;;;28.15;15.60;;;0.20;99.90;;;-0.96;90.24;101612.28;4121791;28;20027;-70
2021/01/09 03:39:32;;;;;;;26.02;16.92;;;0.30;99.90;;;-1.18;90.11;101597.59;4121890;28;20022;-70
2021/01/09 03:41:33;;;;;;;28.27;16.35;;;0.30;99.90;;;-1.23;88.83;101594.34;4121547;28;20086;-70
2021/01/09 03:43:34;;;;;;;27.20;16.25;;;0.10;99.90;;;-1.25;89.56;101601.31;4121859;28;20051;-70
2021/01/09 03:45:35;;;;;;;27.83;16.02;;;0.00;99.90;;;-1.35;89.80;101623.28;4136763;28;20121;-70
2021/01/09 03:47:35;;;;;;;27.65;15.23;;;-1.50;99.90;;;-1.36;90.23;101606.06;4121934;28;20073;-70
2021/01/09 03:49:36;;;;;;;25.55;16.08;;;-0.20;99.90;;;-1.29;90.45;101604.94;4121972;28;20035;-70
2021/01/09 03:51:37;;;;;;;25.75;16.15;;;-0.20;99.90;;;-1.40;90.48;101604.50;4121782;28;20140;-70
2021/01/09 03:53:38;;;;;;;26.45;16.77;;;-0.30;99.90;;;-1.15;89.60;101610.41;4121862;28;20057;-70
2021/01/09 03:55:39;;;;;;;29.60;16.23;;;-0.20;99.90;;;-1.21;89.44;101613.25;4104484;29;20031;-70
2021/01/09 03:57:40;;;;;;;24.23;15.55;;;-0.30;99.90;;;-1.35;91.18;101612.09;4104265;29;20506;-70
2021/01/09 03:59:41;;;;;;;25.25;15.98;;;-0.60;99.90;;;-1.25;91.10;101616.00;4120601;28;20031;-70
2021/01/09 04:01:41;;;;;;;26.38;15.90;;;0.00;99.90;;;-1.08;90.00;101615.34;4121676;28;20042;-70
2021/01/09 04:03:42;;;;;;;29.55;15.95;;;0.10;99.90;;;-1.14;88.91;101614.69;4136679;28;20041;-70
2021/01/09 04:05:43;;;;;;;24.80;14.75;;;0.00;99.90;;;-1.33;89.77;101612.88;4121715;28;20027;-70
2021/01/09 04:07:44;;;;;;;24.77;14.40;;;-0.10;99.90;;;-1.28;89.50;101619.53;4120185;28;20038;-70
2021/01/09 04:09:45;;;;;;;28.52;16.27;;;-0.10;99.90;;;-1.39;89.49;101608.78;4104256;29;20027;-70
2021/01/09 04:11:46;;;;;;;22.38;14.27;;;-0.10;99.90;;;-1.19;90.10;101606.25;4121133;28;20027;-70
2021/01/09 04:13:46;;;;;;;25.38;15.00;;;-0.10;99.90;;;-0.93;88.88;101617.31;4124806;28;20038;-70
2021/01/09 04:15:47;;;;;;;25.98;14.63;;;0.10;99.90;;;-0.86;88.42;101619.59;4128248;28;20027;-70
2021/01/09 04:17:48;;;;;;;25.30;15.73;;;0.10;99.90;;;-1.00;88.11;101603.78;4121535;28;20446;-70
2021/01/09 04:19:49;;;;;;;27.85;15.48;;;0.20;99.90;;;-0.83;87.53;101621.22;4121328;28;20027;-70
2021/01/09 04:21:52;;;;;;;21.90;14.57;;;0.20;99.90;;;-0.76;87.94;101615.72;4121541;28;20030;-70
2021/01/09 04:23:52;;;;;;;23.35;14.73;;;0.20;99.90;;;-1.08;88.04;101615.34;4120341;28;20062;-70
2021/01/09 04:25:53;;;;;;;23.17;15.38;;;0.20;99.90;;;-0.84;87.70;101607.44;4104182;29;20031;-70
2021/01/09 04:27:54;;;;;;;20.20;13.25;;;0.20;99.90;;;-1.13;87.46;101605.16;4120934;28;20027;-70
2021/01/09 04:29:55;;;;;;;21.77;13.13;;;0.20;99.90;;;-0.90;87.96;101617.19;4123583;28;20031;-70
2021/01/09 04:31:57;;;;;;;23.30;13.95;;;0.20;99.90;;;-0.89;87.91;101603.31;4121342;28;20066;-70
2021/01/09 04:33:58;;;;;;;17.55;11.82;;;0.20;99.90;;;-0.94;86.28;101607.84;4104211;29;20054;-70
2021/01/09 04:35:59;;;;;;;21.20;13.15;;;0.20;99.90;;;-1.03;87.05;101603.06;4103907;29;20096;-70
2021/01/09 04:37:59;;;;;;;23.02;14.18;;;0.10;99.90;;;-1.25;88.29;101611.66;4121311;28;20039;-70
2021/01/09 04:40:03;;;;;;;25.30;13.35;;;0.00;99.90;;;-1.50;89.42;101616.13;4121049;28;20023;-70
2021/01/09 04:42:04;;;;;;;19.42;13.02;;;0.20;99.90;;;-1.61;90.24;101620.00;4120752;28;20034;-70
2021/01/09 04:44:09;;;;;;;21.33;13.70;;;0.00;99.90;;;-1.56;91.04;101615.50;4120241;28;20047;-70
2021/01/09 04:46:11;;;;;;;;;;;-0.20;99.90;;;-1.37;90.41;101609.56;4121155;28;20557;-70
2021/01/09 04:48:13;;;;;;;19.40;13.20;;;-0.20;99.90;;;-1.26;89.57;101607.41;4103997;28;19911;-70
2021/01/09 04:50:15;;;;;;;24.42;14.25;;;-0.20;99.90;;;-1.05;88.59;101613.47;4119858;28;20110;-70
2021/01/09 04:52:18;;;;;;;22.17;14.13;;;-0.10;99.90;;;-0.93;88.68;101612.16;4107975;28;20033;-71
2021/01/09 04:54:23;;;;;;;21.98;13.88;;;0.10;99.90;;;-1.22;87.42;101610.69;4119813;28;20023;-70
2021/01/09 04:56:25;;;;;;;19.52;13.13;;;0.20;99.90;;;-1.47;89.57;101610.81;4120530;28;20035;-70
2021/01/09 04:58:26;;;;;;;22.25;13.77;;;0.30;99.90;;;-1.72;90.32;101605.72;4120789;28;20125;-70
2021/01/09 05:00:28;;;;;;;26.67;15.73;;;-0.10;99.90;;;-1.88;90.73;101614.13;4115356;28;20026;-70
2021/01/09 05:02:29;;;;;;;24.35;15.10;;;-0.40;99.90;;;-1.46;89.92;101617.66;4119861;28;20106;-70
2021/01/09 05:04:30;;;;;;;23.88;14.88;;;-0.20;99.90;;;-1.35;89.65;101614.69;4119511;28;20031;-70
2021/01/09 05:06:31;;;;;;;23.05;13.68;;;-0.30;99.90;;;-1.26;88.46;101610.00;4120511;28;20027;-70
2021/01/09 05:08:32;;;;;;;22.95;14.57;;;-0.20;99.90;;;-1.26;87.92;101607.41;4107472;28;20031;-70
2021/01/09 05:10:36;;;;;;;22.42;15.07;;;-0.10;99.90;;;-1.26;88.03;101594.47;4120615;28;20395;-70
2021/01/09 05:12:40;;;;;;;25.45;13.50;;;-0.10;99.90;;;-1.43;88.23;101607.19;4120275;28;20034;-70
2021/01/09 05:14:42;;;;;;;23.27;14.18;;;-0.10;99.90;;;-1.22;89.25;101601.19;4119181;28;20081;-70
2021/01/09 05:16:43;;;;;;;24.05;15.27;;;-0.10;99.90;;;-1.07;89.12;101609.25;4135556;28;20027;-70
2021/01/09 05:18:44;;;;;;;20.80;13.50;;;-0.10;99.90;;;-1.12;87.52;101612.03;4103547;29;20096;-70
2021/01/09 05:20:44;;;;;;;21.45;13.55;;;0.00;99.90;;;-1.20;87.71;101614.09;4119436;28;20030;-70
2021/01/09 05:22:46;;;;;;;23.15;13.05;;;0.00;99.90;;;-1.53;88.62;101611.06;4120475;28;20035;-70
2021/01/09 05:24:49;;;;;;;23.83;14.93;;;-0.10;99.90;;;-1.79;90.69;101611.16;4119323;28;20034;-70
2021/01/09 05:26:51;;;;;;;26.40;14.10;;;-0.10;99.90;;;-1.48;90.16;101627.25;4103029;28;20514;-70
2021/01/09 05:28:58;;;;;;;22.70;14.05;;;-0.20;99.90;;;-1.97;91.17;101620.44;4119343;28;20121;-70
2021/01/09 05:30:58;;;;;;;21.52;13.73;;;0.30;99.90;;;-2.33;91.96;101625.16;4121768;28;20057;-70
2021/01/09 05:33:01;;;;;;;20.83;13.30;;;-0.20;99.90;;;-2.40;92.24;101621.13;4120419;28;20026;-70
2021/01/09 05:35:02;;;;;;;18.25;13.32;;;-0.60;99.90;;;-2.01;91.93;101647.31;4120293;28;20410;-70
2021/01/09 05:37:19;;;;;;;23.98;14.48;;;-0.60;99.90;;;-1.66;91.58;101635.69;4135246;28;20034;-70
2021/01/09 05:39:19;;;;;;;19.52;13.05;;;-0.60;99.90;;;-1.56;91.57;101637.03;4103050;28;20082;-70
2021/01/09 05:41:24;;;;;;;21.75;14.27;;;-0.60;99.90;;;-1.50;89.86;101646.31;4134616;28;20053;-70
2021/01/09 05:43:25;;;;;;;21.10;13.63;;;-0.50;99.90;;;-1.27;89.69;101657.47;4134506;28;20038;-70
2021/01/09 05:45:26;;;;;;;19.10;12.27;;;-0.40;99.90;;;-1.30;87.89;101660.19;4120187;28;20398;-70
2021/01/09 05:47:29;;;;;;;21.40;13.52;;;-0.30;99.90;;;-1.34;87.62;101652.56;4120020;28;20037;-70
2021/01/09 05:49:31;;;;;;;17.95;12.02;;;-0.30;99.90;;;-1.62;88.18;101651.94;4102970;29;20118;-70
2021/01/09 05:51:34;;;;;;;19.85;12.75;;;-0.30;99.90;;;-1.67;88.27;101659.84;4134822;28;20026;-70
2021/01/09 05:53:40;;;;;;;17.48;12.15;;;-0.30;99.90;;;-1.92;90.40;101661.66;4134735;28;20549;-70
2021/01/09 05:55:41;;;;;;;19.67;12.88;;;-0.40;99.90;;;-1.89;89.63;101658.97;4134696;28;20033;-70
2021/01/09 05:57:44;;;;;;;20.83;12.85;;;-0.50;99.90;;;-1.50;89.33;101667.00;4119801;28;20486;-70
2021/01/09 05:59:45;;;;;;;17.73;12.20;;;-0.30;99.90;;;-1.38;87.04;101659.63;4119872;28;20061;-70
2021/01/09 06:01:50;;;;;;;16.67;11.77;;;-0.40;99.90;;;-1.18;88.56;101658.88;4134658;28;20490;-70
2021/01/09 06:03:57;;;;;;;15.20;10.73;;;-0.30;99.90;;;-0.98;86.58;101666.69;4102990;28;20055;-70
2021/01/09 06:06:00;;;;;;;18.50;12.27;;;-0.30;99.90;;;-1.26;85.98;101668.69;4102580;28;20077;-70
2021/01/09 06:08:04;;;;;;;17.57;12.13;;;-0.20;99.90;;;-1.32;87.03;101672.34;4107947;28;20064;-70
2021/01/09 06:10:15;;;;;;;18.60;12.32;;;-0.20;99.90;;;-1.39;87.47;101670.88;4117008;28;20426;-70
2021/01/09 06:12:21;;;;;;;18.98;12.13;;;-0.20;99.90;;;-1.17;88.39;101660.56;4134062;28;20038;-70
2021/01/09 06:14:27;;;;;;;18.70;12.63;;;-0.20;99.90;;;-1.07;87.22;101656.69;4142253;28;20022;-70
2021/01/09 06:16:34;;;;;;;18.75;12.02;;;-0.30;99.90;;;-1.07;84.67;101655.84;4122042;28;20457;-70
2021/01/09 06:18:35;;;;;;;18.48;11.93;;;-0.30;99.90;;;-1.01;85.98;101669.41;4134627;28;20056;-70
2021/01/09 06:20:36;;;;;;;18.48;12.65;;;-0.40;99.90;;;-0.95;83.38;101676.94;4134810;28;20031;-70
2021/01/09 06:22:38;;;;;;;15.85;11.65;;;-0.30;99.90;;;-1.04;84.13;101676.44;4134723;28;20106;-70
2021/01/09 06:24:39;;;;;;;17.55;12.20;;;-0.20;99.90;;;-1.03;85.81;101672.97;4102260;29;20027;-70
2021/01/09 06:26:41;;;;;;;18.60;12.63;;;-0.20;99.90;;;-1.41;85.10;101675.28;4119342;28;20027;-70
2021/01/09 06:28:47;;;;;;;18.38;12.10;;;-0.20;99.90;;;-1.69;86.37;101692.69;4118567;28;20431;-70
2021/01/09 06:30:54;;;;;;;20.05;11.77;;;-0.20;99.90;;;-1.72;87.57;101687.63;4114822;28;20123;-70
2021/01/09 06:32:58;;;;;;;17.08;11.70;;;-0.30;99.90;;;-1.61;88.27;101690.66;4109199;28;20463;-70
2021/01/09 06:35:04;;;;;;;15.63;10.93;;;0.80;99.90;;;-1.33;87.35;101693.94;4127730;28;20027;-70
2021/01/09 06:37:05;;;;;;;18.23;11.85;;;-0.40;99.90;;;-1.19;86.57;101681.31;4119672;28;20522;-70
2021/01/09 06:39:06;;;;;;;19.20;12.77;;;0.00;99.90;;;-1.12;85.47;101684.50;4102181;29;20047;-70
2021/01/09 06:41:12;;;;;;;17.00;11.70;;;-0.30;99.90;;;-1.34;85.45;101689.66;4133969;28;20076;-70
2021/01/09 06:43:14;;;;;;;20.60;13.52;;;-0.40;99.90;;;-1.15;85.48;101679.47;4134191;28;20061;-70
2021/01/09 06:45:16;;;;;;;16.70;12.07;;;-0.30;99.90;;;-1.20;85.50;101686.56;4102405;29;20039;-70
2021/01/09 06:47:28;;;;;;;17.15;12.13;;;-0.30;99.90;;;-1.20;84.30;101690.00;4118312;28;20582;-70
2021/01/09 06:49:29;;;;;;;18.10;13.18;;;0.00;99.90;;;-1.33;84.98;101686.19;4118426;28;20041;-70
2021/01/09 06:51:42;;;;;;;17.38;13.10;;;-0.20;99.90;;;-1.19;84.26;101694.25;4118313;28;20031;-70
2021/01/09 06:54:15;;;;;;;17.65;11.73;;;-0.30;99.90;;;-1.32;85.88;101703.41;4118248;28;20183;-70
2021/01/09 06:56:28;;;;;;;20.15;12.38;;;-0.40;99.90;;;-1.85;86.38;101687.22;4101813;28;20032;-70
2021/01/09 06:58:29;;;;;;;21.40;13.73;;;-0.40;99.90;;;-1.90;87.09;101688.28;4102083;29;20541;-70
2021/01/09 07:00:31;;;;;;;19.25;13.15;;;-0.50;99.90;;;-1.62;88.81;101696.75;4119546;28;20165;-70
2021/01/09 07:02:31;;;;;;;21.02;14.10;;;-0.60;99.90;;;-1.50;85.97;101688.56;4126106;28;20022;-70
2021/01/09 07:05:19;;;;;;;20.98;13.70;;;-0.60;99.90;;;-1.75;86.93;101692.91;4102604;29;20019;-70
2021/01/09 07:07:32;;;;;;;20.42;12.98;;;-0.60;99.90;;;-1.90;86.92;101703.81;4076099;29;20036;-70
2021/01/09 07:09:33;;;;;;;20.52;13.25;;;-0.70;99.90;;;-2.01;87.98;101698.16;4111713;28;20039;-70
2021/01/09 07:11:34;;;;;;;21.58;13.52;;;-0.80;99.90;;;-2.13;88.24;101703.75;4120831;28;20066;-70
2021/01/09 07:13:36;;;;;;;20.92;12.85;;;-1.60;99.90;;;-1.85;88.39;101704.50;4089153;29;20030;-70
2021/01/09 07:15:37;;;;;;;21.27;13.85;;;-0.90;99.90;;;-2.02;88.03;101704.22;4118746;28;20022;-70
2021/01/09 07:17:41;;;;;;;21.95;13.48;;;-0.90;99.90;;;-1.75;87.42;101713.59;4121298;28;20023;-70
2021/01/09 07:19:43;;;;;;;16.67;12.55;;;0.10;99.90;;;-1.87;86.57;101708.88;4104951;29;20078;-70
2021/01/09 07:21:47;;;;;;;23.23;14.52;;;-0.80;99.90;;;-2.11;87.69;101714.88;4104874;28;20078;-70
2021/01/09 07:23:56;;;;;;;23.73;15.02;;;-0.80;99.90;;;-2.09;87.64;101710.53;4122359;28;20031;-70
2021/01/09 07:26:00;;;;;;;20.30;14.25;;;-0.90;99.90;;;-2.14;87.33;101714.97;4122332;28;20050;-71
2021/01/09 07:28:12;;;;;;;16.30;10.83;;;-0.90;99.90;;;-2.10;87.61;101722.59;4121909;28;20034;-70
2021/01/09 07:30:19;;;;;;;22.25;14.63;;;-1.00;99.90;;;-2.06;87.27;101729.31;4121114;28;20278;-71
2021/01/09 07:32:36;;;;;;;22.92;14.75;;;-1.10;99.90;;;-2.15;87.39;101718.47;4120767;28;20429;-71
2021/01/09 07:34:42;;;;;;;22.27;15.40;;;-1.10;99.90;;;-2.01;87.85;101727.44;4108479;28;20573;-71
2021/01/09 07:36:47;;;;;;;19.27;13.45;;;-1.20;99.90;;;-2.03;87.41;101724.06;4102547;28;20023;-72
2021/01/09 07:38:48;;;;;;;24.02;15.32;;;-1.20;99.90;;;-2.06;87.11;101724.16;4120555;28;20403;-72
2021/01/09 07:40:58;;;;;;;23.55;14.30;;;-1.10;99.90;;;-2.06;86.62;101723.34;4120464;28;20061;-72
2021/01/09 07:43:00;;;;;;;21.17;14.10;;;-1.20;99.90;;;-1.96;86.74;101729.88;4104465;28;20078;-72
2021/01/09 07:45:10;;;;;;;22.92;14.20;;;-1.10;99.90;;;-2.11;86.41;101738.13;4120576;28;20047;-72
2021/01/09 07:47:23;;;;;;;21.45;14.52;;;-1.20;99.90;;;-2.35;86.46;101732.03;4121824;28;20466;-71
2021/01/09 07:49:26;;;;;;;20.75;13.73;;;-1.20;99.90;;;-2.22;87.15;101737.66;4120950;28;20073;-71
2021/01/09 07:51:51;;;;;;;21.08;13.73;;;-1.30;99.90;;;-1.97;86.07;101733.38;4121788;28;20066;-71
2021/01/09 07:53:52;;;;;;;24.20;15.50;;;-1.20;99.90;;;-1.99;85.55;101745.47;4120678;28;20031;-71
2021/01/09 07:55:54;;;;;;;20.88;14.57;;;-1.20;99.90;;;-2.09;86.49;101736.38;4117534;28;20047;-72
2021/01/09 07:57:55;;;;;;;24.85;15.43;;;-1.20;99.90;;;-2.10;86.70;101747.59;4126439;28;20653;-73
2021/01/09 07:59:56;;;;;;;24.70;15.38;;;-1.20;99.90;;;-1.98;86.14;101748.03;4121409;28;20038;-72
2021/01/09 08:01:57;;;;;;;23.83;15.38;;;-1.10;99.90;;;-2.16;86.57;101740.88;4121147;28;20030;-72
2021/01/09 08:04:00;;;;;;;25.95;16.92;;;-1.50;99.90;;;-2.13;86.85;101752.84;4120260;28;20027;-73
2021/01/09 08:06:02;;;;;;;22.00;14.90;;;-1.10;99.90;;;-2.21;87.28;101750.50;4088291;29;20028;-70
2021/01/09 08:08:04;;;;;;;23.77;15.73;;;-1.10;99.90;;;-2.04;87.90;101755.13;4117838;28;20505;-71
2021/01/09 08:10:25;;;;;;;20.90;14.30;;;-1.10;99.90;;;-1.85;87.92;101764.78;4130810;28;20077;-70
2021/01/09 08:12:29;;;;;;;22.83;14.00;;;-1.10;99.90;;;-1.87;85.65;101758.00;4120769;28;20431;-73
2021/01/09 08:14:29;;;;;;;21.83;14.77;;;-1.10;99.90;;;-1.96;85.93;101763.47;4119785;28;20030;-73
2021/01/09 08:16:30;;;;;;;22.33;14.80;;;-1.10;99.90;;;-1.97;86.72;101754.88;4089667;29;20099;-72
2021/01/09 08:18:32;;;;;;;25.45;16.42;;;-1.10;99.90;;;-1.86;86.42;101770.03;4109521;28;20027;-73
2021/01/09 08:20:33;;;;;;;27.00;15.52;;;-1.00;99.90;;;-1.77;85.55;101773.16;4103615;29;20118;-72
2021/01/09 08:22:37;;;;;;;23.27;15.05;;;-1.00;99.90;;;-1.83;85.74;101768.19;4103670;29;20036;-73
2021/01/09 08:24:38;;;;;;;23.17;14.23;;;-1.00;99.90;;;-1.72;85.27;101775.56;4120945;28;20023;-73